createdAt,value
2022-12-13T00:01:57.954Z,99141.47
2022-12-13T00:04:27.135Z,99142.38
2022-12-13T00:06:54.904Z,99139.16
2022-12-13T00:09:23.756Z,99152.09
2022-12-13T00:11:52.349Z,99151.19
2022-12-13T00:14:20.153Z,99146.78
2022-12-13T00:16:50.701Z,99157.22
2022-12-13T00:19:19.745Z,99150.44
2022-12-13T00:21:49.091Z,99153.94
2022-12-13T00:24:16.917Z,99152.81
2022-12-13T00:26:46.438Z,99153.94
2022-12-13T00:29:15.201Z,99156.50
2022-12-13T00:31:59.416Z,99157.41
2022-12-13T00:34:29.664Z,99161.88
2022-12-13T00:36:59.565Z,99168.50
2022-12-13T00:39:28.236Z,99159.84
2022-12-13T00:41:56.500Z,99165.09
2022-12-13T00:44:24.676Z,99161.53
2022-12-13T00:46:54.743Z,99164.44
2022-12-13T00:49:23.899Z,99164.38
2022-12-13T00:51:52.683Z,99165.28
2022-12-13T00:54:21.427Z,99168.91
2022-12-13T00:56:51.710Z,99168.72
2022-12-13T00:59:20.625Z,99168.84
2022-12-13T01:01:49.635Z,99171.66
2022-12-13T01:04:18.369Z,99172.66
2022-12-13T01:06:50.154Z,99176.78
2022-12-13T01:09:29.988Z,99181.91
2022-12-13T01:12:05.962Z,99183.69
2022-12-13T01:14:38.166Z,99183.75
2022-12-13T01:17:08.213Z,99184.03
2022-12-13T01:19:37.700Z,99183.88
2022-12-13T01:22:07.967Z,99189.06
2022-12-13T01:24:36.973Z,99184.00
2022-12-13T01:27:05.802Z,99185.63
2022-12-13T01:29:34.507Z,99190.16
2022-12-13T01:32:03.198Z,99183.00
2022-12-13T01:34:31.014Z,99176.84
2022-12-13T01:36:59.034Z,99182.28
2022-12-13T01:39:28.865Z,99175.38
2022-12-13T01:41:59.994Z,99189.31
2022-12-13T01:44:56.518Z,99187.59
2022-12-13T01:47:49.599Z,99198.97
2022-12-13T01:50:33.263Z,99198.03
2022-12-13T01:53:03.282Z,99197.91
2022-12-13T01:55:41.551Z,99205.91
2022-12-13T01:58:09.706Z,99215.69
2022-12-13T02:00:40.887Z,99214.88
2022-12-13T02:03:21.459Z,99221.00
2022-12-13T02:06:09.671Z,99213.38
2022-12-13T02:08:39.853Z,99211.38
2022-12-13T02:11:08.349Z,99206.94
2022-12-13T02:13:38.900Z,99212.34
2022-12-13T02:16:35.982Z,99208.88
2022-12-13T02:20:00.615Z,99213.28
2022-12-13T02:23:09.923Z,99215.19
2022-12-13T02:26:40.787Z,99207.31
2022-12-13T02:29:49.429Z,99211.72
2022-12-13T02:32:38.055Z,99211.44
2022-12-13T02:35:11.482Z,99201.22
2022-12-13T02:38:14.333Z,99202.13
2022-12-13T02:41:27.834Z,99204.69
2022-12-13T02:44:21.807Z,99204.44
2022-12-13T02:47:39.829Z,99204.59
2022-12-13T02:50:11.364Z,99205.41
2022-12-13T02:52:43.102Z,99208.06
2022-12-13T02:55:16.493Z,99204.75
2022-12-13T02:57:48.665Z,99214.06
2022-12-13T03:00:23.860Z,99214.19
2022-12-13T03:03:24.241Z,99216.09
2022-12-13T03:06:33.696Z,99207.16
2022-12-13T03:09:49.118Z,99215.19
2022-12-13T03:13:07.182Z,99218.56
2022-12-13T03:15:57.025Z,99219.44
2022-12-13T03:18:30.869Z,99220.56
2022-12-13T03:21:07.124Z,99215.25
2022-12-13T03:23:38.176Z,99219.66
2022-12-13T03:26:24.934Z,99212.72
2022-12-13T03:29:03.130Z,99217.06
2022-12-13T03:31:56.618Z,99222.22
2022-12-13T03:34:25.417Z,99221.34
2022-12-13T03:37:11.728Z,99224.84
2022-12-13T03:39:40.522Z,99223.97
2022-12-13T03:42:09.503Z,99221.03
2022-12-13T03:44:38.201Z,99224.75
2022-12-13T03:47:06.919Z,99225.59
2022-12-13T03:49:35.872Z,99222.81
2022-12-13T03:52:03.907Z,99225.56
2022-12-13T03:54:33.420Z,99233.63
2022-12-13T03:57:02.015Z,99232.06
2022-12-13T03:59:29.876Z,99235.47
2022-12-13T04:01:58.569Z,99232.81
2022-12-13T04:04:27.255Z,99240.84
2022-12-13T04:06:55.980Z,99244.41
2022-12-13T04:09:24.745Z,99248.63
2022-12-13T04:12:11.134Z,99250.44
2022-12-13T04:14:38.890Z,99241.69
2022-12-13T04:17:07.621Z,99249.53
2022-12-13T04:19:37.071Z,99248.56
2022-12-13T04:22:05.829Z,99246.03
2022-12-13T04:24:34.594Z,99245.91
2022-12-13T04:27:02.903Z,99246.91
2022-12-13T04:29:33.719Z,99247.63
2022-12-13T04:32:05.076Z,99251.34
2022-12-13T04:34:37.538Z,99248.78
2022-12-13T04:37:06.335Z,99247.03
2022-12-13T04:39:35.508Z,99244.53
2022-12-13T04:42:03.504Z,99246.16
2022-12-13T04:44:36.819Z,99240.03
2022-12-13T04:47:05.549Z,99244.38
2022-12-13T04:49:35.271Z,99245.91
2022-12-13T04:52:03.402Z,99246.03
2022-12-13T04:54:36.063Z,99259.22
2022-12-13T04:57:11.790Z,99253.88
2022-12-13T04:59:40.837Z,99241.88
2022-12-13T05:02:11.257Z,99251.56
2022-12-13T05:04:40.075Z,99255.84
2022-12-13T05:07:07.939Z,99246.22
2022-12-13T05:09:36.730Z,99248.06
2022-12-13T05:12:22.014Z,99253.31
2022-12-13T05:14:54.046Z,99256.09
2022-12-13T05:17:23.178Z,99259.69
2022-12-13T05:19:52.720Z,99262.13
2022-12-13T05:22:21.498Z,99262.91
2022-12-13T05:24:50.609Z,99255.94
2022-12-13T05:27:25.612Z,99257.78
2022-12-13T05:30:02.771Z,99254.31
2022-12-13T05:32:43.348Z,99250.78
2022-12-13T05:35:22.262Z,99246.59
2022-12-13T05:37:53.772Z,99248.41
2022-12-13T05:40:27.761Z,99251.72
2022-12-13T05:43:01.674Z,99255.28
2022-12-13T05:45:33.745Z,99265.78
2022-12-13T05:48:02.569Z,99262.22
2022-12-13T05:50:31.411Z,99264.72
2022-12-13T05:53:00.216Z,99263.91
2022-12-13T05:55:28.933Z,99270.13
2022-12-13T05:58:02.432Z,99270.22
2022-12-13T06:00:31.986Z,99264.09
2022-12-13T06:03:01.725Z,99271.03
2022-12-13T06:05:31.295Z,99282.31
2022-12-13T06:07:59.545Z,99281.66
2022-12-13T06:10:35.042Z,99268.59
2022-12-13T06:13:22.117Z,99281.47
2022-12-13T06:16:01.972Z,99287.66
2022-12-13T06:18:34.490Z,99279.91
2022-12-13T06:21:07.336Z,99288.59
2022-12-13T06:23:36.167Z,99284.16
2022-12-13T06:26:07.588Z,99291.13
2022-12-13T06:28:36.441Z,99286.69
2022-12-13T06:31:05.538Z,99304.97
2022-12-13T06:33:39.153Z,99302.34
2022-12-13T06:36:09.024Z,99298.09
2022-12-13T06:38:43.503Z,99296.28
2022-12-13T06:41:16.939Z,99301.59
2022-12-13T06:43:47.847Z,99305.84
2022-12-13T06:46:16.936Z,99306.72
2022-12-13T06:48:45.202Z,99308.38
2022-12-13T06:51:13.188Z,99307.66
2022-12-13T06:53:51.804Z,99309.28
2022-12-13T06:56:20.578Z,99316.03
2022-12-13T06:58:48.600Z,99312.72
2022-12-13T07:01:24.261Z,99310.88
2022-12-13T07:03:56.724Z,99315.97
2022-12-13T07:06:26.400Z,99323.84
2022-12-13T07:08:58.301Z,99331.50
2022-12-13T07:11:33.347Z,99339.38
2022-12-13T07:14:02.113Z,99330.53
2022-12-13T07:16:30.121Z,99342.47
2022-12-13T07:19:01.876Z,99341.63
2022-12-13T07:21:32.334Z,99338.34
2022-12-13T07:24:02.228Z,99340.94
2022-12-13T07:26:30.099Z,99341.72
2022-12-13T07:28:57.959Z,99337.31
2022-12-13T07:31:26.864Z,99342.31
2022-12-13T07:33:56.480Z,99350.91
2022-12-13T07:36:24.873Z,99349.25
2022-12-13T07:38:57.435Z,99351.06
2022-12-13T07:41:27.736Z,99351.66
2022-12-13T07:43:57.381Z,99350.66
2022-12-13T07:46:32.525Z,99352.25
2022-12-13T07:49:05.123Z,99360.78
2022-12-13T07:51:35.755Z,99367.47
2022-12-13T07:54:06.262Z,99350.94
2022-12-13T07:56:36.484Z,99369.59
2022-12-13T07:59:05.577Z,99375.47
2022-12-13T08:01:35.495Z,99373.19
2022-12-13T08:04:05.551Z,99376.81
2022-12-13T08:06:39.572Z,99380.13
2022-12-13T08:09:08.237Z,99383.81
2022-12-13T08:11:37.020Z,99376.31
2022-12-13T08:14:07.362Z,99379.78
2022-12-13T08:16:37.022Z,99378.72
2022-12-13T08:19:06.599Z,99384.38
2022-12-13T08:22:01.796Z,99388.72
2022-12-13T08:24:31.876Z,99383.94
2022-12-13T08:27:03.440Z,99391.69
2022-12-13T08:29:36.477Z,99386.56
2022-12-13T08:32:10.774Z,99391.75
2022-12-13T08:34:41.465Z,99400.47
2022-12-13T08:37:09.712Z,99398.81
2022-12-13T08:39:39.368Z,99396.09
2022-12-13T08:42:19.427Z,99397.25
2022-12-13T08:44:52.324Z,99400.53
2022-12-13T08:47:26.881Z,99399.59
2022-12-13T08:50:01.933Z,99398.28
2022-12-13T08:52:40.606Z,99395.50
2022-12-13T08:55:15.725Z,99395.31
2022-12-13T08:57:45.664Z,99391.00
2022-12-13T09:00:20.023Z,99395.84
2022-12-13T09:02:49.594Z,99395.25
2022-12-13T09:05:34.149Z,99391.56
2022-12-13T09:08:23.123Z,99393.28
2022-12-13T09:11:11.462Z,99392.38
2022-12-13T09:13:52.875Z,99396.03
2022-12-13T09:16:35.671Z,99392.53
2022-12-13T09:19:25.467Z,99397.56
2022-12-13T09:22:02.804Z,99390.25
2022-12-13T09:24:35.795Z,99388.31
2022-12-13T09:27:09.601Z,99383.56
2022-12-13T09:29:39.699Z,99384.38
2022-12-13T09:32:09.234Z,99376.41
2022-12-13T09:34:39.503Z,99376.72
2022-12-13T09:37:09.252Z,99384.41
2022-12-13T09:39:38.771Z,99382.41
2022-12-13T09:42:23.026Z,99385.00
2022-12-13T09:45:05.469Z,99382.06
2022-12-13T09:47:47.535Z,99379.06
2022-12-13T09:50:38.511Z,99376.09
2022-12-13T09:53:12.050Z,99373.53
2022-12-13T09:55:52.555Z,99370.03
2022-12-13T09:58:31.904Z,99377.66
2022-12-13T10:01:00.709Z,99377.19
2022-12-13T10:03:30.021Z,99375.16
2022-12-13T10:06:09.212Z,99375.25
2022-12-13T10:08:57.695Z,99369.88
2022-12-13T10:11:31.384Z,99371.88
2022-12-13T10:14:36.667Z,99367.72
2022-12-13T10:17:09.479Z,99366.69
2022-12-13T10:19:46.732Z,99359.06
2022-12-13T10:22:19.915Z,99357.19
2022-12-13T10:25:06.114Z,99362.22
2022-12-13T10:27:45.532Z,99357.19
2022-12-13T10:30:29.006Z,99355.91
2022-12-13T10:33:01.512Z,99353.91
2022-12-13T10:35:38.165Z,99349.44
2022-12-13T10:38:16.756Z,99338.84
2022-12-13T10:40:46.727Z,99336.19
2022-12-13T10:43:21.168Z,99334.03
2022-12-13T10:46:04.179Z,99334.72
2022-12-13T10:48:41.305Z,99329.59
2022-12-13T10:51:18.721Z,99343.19
2022-12-13T10:53:55.415Z,99344.13
2022-12-13T10:56:37.712Z,99344.41
2022-12-13T10:59:38.773Z,99346.09
2022-12-13T11:02:37.794Z,99348.69
2022-12-13T11:05:33.464Z,99340.66
2022-12-13T11:08:27.057Z,99337.06
2022-12-13T11:11:04.522Z,99331.25
2022-12-13T11:13:57.141Z,99324.22
2022-12-13T11:16:35.649Z,99327.75
2022-12-13T11:19:18.820Z,99328.72
2022-12-13T11:21:50.954Z,99316.03
2022-12-13T11:24:36.148Z,99320.41
2022-12-13T11:28:26.636Z,99323.72
2022-12-13T11:31:07.981Z,99324.25
2022-12-13T11:34:42.451Z,99319.47
2022-12-13T11:38:11.253Z,99314.06
2022-12-13T11:40:46.740Z,99311.00
2022-12-13T11:43:42.690Z,99325.25
2022-12-13T11:46:20.993Z,99320.25
2022-12-13T11:49:20.755Z,99316.31
2022-12-13T11:52:00.177Z,99316.91
2022-12-13T11:55:20.553Z,99326.78
2022-12-13T11:58:16.651Z,99320.56
2022-12-13T12:01:07.034Z,99316.31
2022-12-13T12:03:48.330Z,99316.75
2022-12-13T12:06:43.855Z,99313.09
2022-12-13T12:09:19.456Z,99310.91
2022-12-13T12:12:11.928Z,99317.38
2022-12-13T12:15:05.185Z,99309.75
2022-12-13T12:17:44.927Z,99315.59
2022-12-13T12:20:40.688Z,99317.88
2022-12-13T12:23:44.381Z,99315.69
2022-12-13T12:26:18.718Z,99308.66
2022-12-13T12:29:26.124Z,99312.84
2022-12-13T12:32:20.558Z,99306.25
2022-12-13T12:35:34.194Z,99310.94
2022-12-13T12:38:44.657Z,99311.19
2022-12-13T12:41:53.081Z,99308.97
2022-12-13T12:44:34.124Z,99319.69
2022-12-13T12:50:48.838Z,99309.38
2022-12-13T12:54:08.449Z,99300.00
2022-12-13T12:57:17.300Z,99290.44
2022-12-13T13:00:21.916Z,99289.19
2022-12-13T13:03:12.075Z,99298.78
2022-12-13T13:06:06.899Z,99304.03
2022-12-13T13:08:56.829Z,99315.63
2022-12-13T13:11:31.413Z,99316.09
2022-12-13T13:14:03.034Z,99314.00
2022-12-13T13:16:39.626Z,99328.00
2022-12-13T13:19:17.452Z,99322.09
2022-12-13T13:22:01.671Z,99327.69
2022-12-13T13:24:34.832Z,99321.72
2022-12-13T13:27:10.376Z,99326.53
2022-12-13T13:29:43.471Z,99328.97
2022-12-13T13:32:28.326Z,99328.31
2022-12-13T13:35:43.007Z,99341.16
2022-12-13T13:38:49.934Z,99345.38
2022-12-13T13:41:56.774Z,99341.94
2022-12-13T13:44:45.848Z,99340.66
2022-12-13T13:47:41.302Z,99349.88
2022-12-13T13:50:08.992Z,99343.56
2022-12-13T13:53:29.583Z,99362.47
2022-12-13T13:56:32.628Z,99363.03
2022-12-13T13:59:54.323Z,99363.63
2022-12-13T14:03:33.171Z,99366.59
2022-12-13T14:07:00.736Z,99368.59
2022-12-13T14:10:19.532Z,99365.03
2022-12-13T14:13:46.698Z,99363.47
2022-12-13T14:16:48.694Z,99357.56
2022-12-13T14:20:22.003Z,99357.56
2022-12-13T14:23:21.888Z,99359.38
2022-12-13T14:26:44.261Z,99357.50
2022-12-13T14:29:32.176Z,99363.00
2022-12-13T14:32:01.371Z,99360.56
2022-12-13T14:34:34.551Z,99365.69
2022-12-13T14:37:24.009Z,99364.28
2022-12-13T14:39:52.834Z,99370.75
2022-12-13T14:42:34.354Z,99374.22
2022-12-13T14:45:37.457Z,99381.44
2022-12-13T14:48:28.075Z,99377.03
2022-12-13T14:50:58.580Z,99374.72
2022-12-13T14:53:43.015Z,99373.22
2022-12-13T14:56:28.398Z,99369.88
2022-12-13T14:59:01.589Z,99376.22
2022-12-13T15:01:40.642Z,99381.44
2022-12-13T15:04:35.061Z,99376.94
2022-12-13T15:07:28.606Z,99376.47
2022-12-13T15:10:19.156Z,99374.94
2022-12-13T15:12:49.390Z,99376.56
2022-12-13T15:15:36.609Z,99373.47
2022-12-13T15:18:13.138Z,99378.66
2022-12-13T15:20:43.127Z,99374.97
2022-12-13T15:23:21.476Z,99387.75
2022-12-13T15:26:28.436Z,99394.78
2022-12-13T15:29:10.325Z,99397.22
2022-12-13T15:31:40.878Z,99391.97
2022-12-13T15:34:30.615Z,99387.09
2022-12-13T15:37:03.714Z,99391.50
2022-12-13T15:39:41.677Z,99388.13
2022-12-13T15:42:33.999Z,99394.44
2022-12-13T15:45:16.152Z,99389.84
2022-12-13T15:47:47.135Z,99395.06
2022-12-13T15:50:50.959Z,99393.22
2022-12-13T15:53:29.555Z,99401.28
2022-12-13T15:56:01.189Z,99395.59
2022-12-13T15:58:37.329Z,99392.75
2022-12-13T16:01:06.997Z,99396.34
2022-12-13T16:03:46.945Z,99401.91
2022-12-13T16:06:22.885Z,99401.09
2022-12-13T16:09:01.124Z,99399.47
2022-12-13T16:12:01.339Z,99397.66
2022-12-13T16:14:49.685Z,99397.00
2022-12-13T16:17:32.074Z,99403.84
2022-12-13T16:20:07.873Z,99405.88
2022-12-13T16:22:39.193Z,99404.06
2022-12-13T16:25:19.025Z,99402.78
2022-12-13T16:27:49.283Z,99406.88
2022-12-13T16:31:35.922Z,99409.50
2022-12-13T16:34:07.214Z,99406.13
2022-12-13T16:36:37.282Z,99393.97
2022-12-13T16:39:11.219Z,99401.13
2022-12-13T16:41:46.179Z,99389.72
2022-12-13T16:44:37.580Z,99394.84
2022-12-13T16:47:22.329Z,99395.88
2022-12-13T16:49:54.145Z,99394.03
2022-12-13T16:52:23.983Z,99397.13
2022-12-13T16:54:53.754Z,99392.72
2022-12-13T16:57:23.500Z,99401.78
2022-12-13T16:59:53.819Z,99394.84
2022-12-13T17:02:23.673Z,99396.69
2022-12-13T17:04:53.212Z,99402.19
2022-12-13T17:07:22.878Z,99405.44
2022-12-13T17:09:52.446Z,99404.63
2022-12-13T17:12:24.882Z,99410.03
2022-12-13T17:14:55.195Z,99403.84
2022-12-13T17:17:24.811Z,99411.78
2022-12-13T17:19:54.753Z,99404.69
2022-12-13T17:22:25.059Z,99405.19
2022-12-13T17:24:54.889Z,99401.59
2022-12-13T17:27:24.507Z,99399.81
2022-12-13T17:29:54.172Z,99411.38
2022-12-13T17:32:25.439Z,99412.25
2022-12-13T17:34:56.081Z,99415.69
2022-12-13T17:37:25.733Z,99412.22
2022-12-13T17:39:55.313Z,99411.41
2022-12-13T17:42:25.990Z,99421.75
2022-12-13T17:44:55.701Z,99421.03
2022-12-13T17:47:26.761Z,99409.63
2022-12-13T17:49:57.317Z,99410.50
2022-12-13T17:52:26.979Z,99416.75
2022-12-13T17:54:56.787Z,99418.56
2022-12-13T17:57:27.270Z,99422.72
2022-12-13T17:59:57.843Z,99418.38
2022-12-13T18:02:27.708Z,99414.56
2022-12-13T18:04:57.438Z,99417.41
2022-12-13T18:07:27.098Z,99415.81
2022-12-13T18:09:56.830Z,99417.09
2022-12-13T18:12:27.426Z,99418.06
2022-12-13T18:14:57.896Z,99419.72
2022-12-13T18:17:46.555Z,99415.47
2022-12-13T18:20:19.290Z,99415.47
2022-12-13T18:22:51.565Z,99411.19
2022-12-13T18:25:21.416Z,99409.31
2022-12-13T18:27:53.832Z,99414.53
2022-12-13T18:30:28.261Z,99413.47
2022-12-13T18:32:59.545Z,99418.66
2022-12-13T18:35:30.198Z,99415.19
2022-12-13T18:37:59.786Z,99422.41
2022-12-13T18:40:29.323Z,99419.03
2022-12-13T18:42:58.147Z,99410.16
2022-12-13T18:45:26.011Z,99410.19
2022-12-13T18:47:55.479Z,99415.53
2022-12-13T18:50:25.602Z,99420.88
2022-12-13T18:52:55.150Z,99415.63
2022-12-13T18:55:25.216Z,99414.91
2022-12-13T18:57:56.290Z,99411.31
2022-12-13T19:00:27.062Z,99420.78
2022-12-13T19:02:57.176Z,99412.25
2022-12-13T19:05:27.065Z,99411.47
2022-12-13T19:07:56.784Z,99413.91
2022-12-13T19:10:26.825Z,99412.13
2022-12-13T19:12:56.565Z,99410.41
2022-12-13T19:15:26.344Z,99411.34
2022-12-13T19:17:56.081Z,99416.56
2022-12-13T19:20:25.952Z,99417.50
2022-12-13T19:22:55.733Z,99417.53
2022-12-13T19:25:25.482Z,99416.72
2022-12-13T19:27:56.915Z,99417.59
2022-12-13T19:30:26.903Z,99419.28
2022-12-13T19:32:57.367Z,99420.06
2022-12-13T19:35:27.908Z,99417.44
2022-12-13T19:37:58.439Z,99414.94
2022-12-13T19:40:28.606Z,99413.34
2022-12-13T19:42:59.110Z,99420.25
2022-12-13T19:45:29.583Z,99420.28
2022-12-13T19:47:59.318Z,99411.63
2022-12-13T19:50:30.883Z,99416.88
2022-12-13T19:53:00.624Z,99416.75
2022-12-13T19:55:31.133Z,99414.25
2022-12-13T19:58:01.925Z,99420.38
2022-12-13T20:00:31.633Z,99415.19
2022-12-13T20:03:01.377Z,99424.81
2022-12-13T20:05:31.148Z,99422.06
2022-12-13T20:08:01.744Z,99417.72
2022-12-13T20:10:35.249Z,99421.34
2022-12-13T20:13:06.187Z,99410.03
2022-12-13T20:15:36.695Z,99408.28
2022-12-13T20:18:06.562Z,99417.88
2022-12-13T20:21:02.424Z,99423.09
2022-12-13T20:23:27.104Z,99422.25
2022-12-13T20:26:08.013Z,99416.91
2022-12-13T20:28:38.575Z,99418.63
2022-12-13T20:31:14.683Z,99418.69
2022-12-13T20:33:44.560Z,99420.44
2022-12-13T20:36:24.813Z,99423.13
2022-12-13T20:39:01.833Z,99437.03
2022-12-13T20:41:34.725Z,99434.44
2022-12-13T20:44:10.748Z,99438.78
2022-12-13T20:46:40.937Z,99426.59
2022-12-13T20:49:10.847Z,99424.00
2022-12-13T20:51:42.194Z,99426.59
2022-12-13T20:54:11.851Z,99430.06
2022-12-13T20:56:41.818Z,99437.06
2022-12-13T20:59:14.743Z,99437.94
2022-12-13T21:01:48.834Z,99432.66
2022-12-13T21:04:19.148Z,99441.38
2022-12-13T21:06:49.002Z,99438.75
2022-12-13T21:09:18.736Z,99432.72
2022-12-13T21:11:50.366Z,99451.88
2022-12-13T21:14:28.562Z,99446.66
2022-12-13T21:17:09.743Z,99451.03
2022-12-13T21:19:41.061Z,99453.66
2022-12-13T21:22:10.764Z,99452.78
2022-12-13T21:24:40.553Z,99450.16
2022-12-13T21:27:10.201Z,99451.91
2022-12-13T21:29:38.827Z,99447.53
2022-12-13T21:32:08.647Z,99451.88
2022-12-13T21:34:38.255Z,99451.88
2022-12-13T21:37:06.998Z,99451.03
2022-12-13T21:39:36.672Z,99449.28
2022-12-13T21:42:06.222Z,99438.81
2022-12-13T21:44:34.972Z,99432.75
2022-12-13T21:47:13.101Z,99430.13
2022-12-13T21:49:48.540Z,99428.28
2022-12-13T21:52:18.612Z,99438.72
2022-12-13T21:54:47.386Z,99437.88
2022-12-13T21:57:35.513Z,99432.75
2022-12-13T22:00:06.442Z,99431.75
2022-12-13T22:02:36.117Z,99426.66
2022-12-13T22:05:06.887Z,99420.53
2022-12-13T22:07:35.611Z,99432.63
2022-12-13T22:10:05.938Z,99432.69
2022-12-13T22:12:40.888Z,99427.44
2022-12-13T22:15:15.644Z,99417.06
2022-12-13T22:17:45.452Z,99420.50
2022-12-13T22:20:15.923Z,99422.28
2022-12-13T22:22:48.652Z,99428.34
2022-12-13T22:25:18.987Z,99417.03
2022-12-13T22:27:47.753Z,99406.59
2022-12-13T22:30:17.452Z,99403.03
2022-12-13T22:32:47.137Z,99406.56
2022-12-13T22:35:16.900Z,99405.69
2022-12-13T22:37:50.122Z,99400.41
2022-12-13T22:40:19.707Z,99395.22
2022-12-13T22:42:49.286Z,99391.63
2022-12-13T22:45:18.916Z,99393.41
2022-12-13T22:47:47.491Z,99392.56
2022-12-13T22:50:20.258Z,99392.53
2022-12-13T22:52:49.789Z,99395.97
2022-12-13T22:55:18.510Z,99388.06
2022-12-13T22:57:48.522Z,99389.91
2022-12-13T23:00:18.717Z,99387.28
2022-12-13T23:02:48.592Z,99397.75
2022-12-13T23:05:17.579Z,99394.19
2022-12-13T23:07:48.570Z,99387.22
2022-12-13T23:10:36.042Z,99385.50
2022-12-13T23:13:04.789Z,99387.34
2022-12-13T23:15:38.872Z,99384.69
2022-12-13T23:18:08.417Z,99389.06
2022-12-13T23:20:38.009Z,99389.00
2022-12-13T23:23:07.604Z,99383.66
2022-12-13T23:25:36.181Z,99387.25
2022-12-13T23:28:05.448Z,99387.22
2022-12-13T23:30:37.319Z,99367.94
2022-12-13T23:33:06.107Z,99374.94
2022-12-13T23:35:35.754Z,99379.19
2022-12-13T23:38:05.285Z,99380.00
2022-12-13T23:40:33.999Z,99376.41
2022-12-13T23:43:02.567Z,99370.31
2022-12-13T23:45:31.238Z,99367.00
2022-12-13T23:48:00.801Z,99362.59
2022-12-13T23:50:30.671Z,99355.75
2022-12-13T23:53:00.159Z,99361.75
2022-12-13T23:55:29.658Z,99362.47
2022-12-13T23:57:58.202Z,99371.19
